createdAt,value
2022-10-18T00:00:59.905Z,102473.06
2022-10-18T00:03:26.998Z,102468.56
2022-10-18T00:05:54.159Z,102464.16
2022-10-18T00:08:21.690Z,102470.41
2022-10-18T00:10:50.056Z,102466.81
2022-10-18T00:13:17.952Z,102459.81
2022-10-18T00:15:55.085Z,102467.81
2022-10-18T00:18:23.266Z,102467.88
2022-10-18T00:21:00.238Z,102461.69
2022-10-18T00:23:29.235Z,102465.25
2022-10-18T00:26:16.410Z,102460.00
2022-10-18T00:28:45.347Z,102455.59
2022-10-18T00:31:16.757Z,102449.44
2022-10-18T00:33:51.534Z,102449.44
2022-10-18T00:36:20.111Z,102445.13
2022-10-18T00:38:48.379Z,102451.31
2022-10-18T00:41:20.160Z,102446.88
2022-10-18T00:44:05.221Z,102446.84
2022-10-18T00:46:39.860Z,102453.03
2022-10-18T00:49:15.420Z,102458.28
2022-10-18T00:51:57.841Z,102453.84
2022-10-18T00:54:27.738Z,102458.28
2022-10-18T00:56:54.868Z,102453.88
2022-10-18T00:59:23.399Z,102452.13
2022-10-18T01:01:50.621Z,102456.59
2022-10-18T01:04:22.151Z,102458.38
2022-10-18T01:07:24.683Z,102457.44
2022-10-18T01:10:25.568Z,102463.59
2022-10-18T01:13:01.208Z,102467.09
2022-10-18T01:15:36.708Z,102469.75
2022-10-18T01:18:15.444Z,102461.84
2022-10-18T01:21:13.177Z,102468.06
2022-10-18T01:24:26.359Z,102467.19
2022-10-18T01:27:15.196Z,102467.19
2022-10-18T01:30:34.271Z,102464.53
2022-10-18T01:33:27.640Z,102465.44
2022-10-18T01:36:16.835Z,102473.41
2022-10-18T01:38:47.475Z,102475.09
2022-10-18T01:41:18.745Z,102465.34
2022-10-18T01:43:50.832Z,102458.25
2022-10-18T01:46:23.559Z,102464.44
2022-10-18T01:48:56.269Z,102467.09
2022-10-18T01:51:27.136Z,102461.84
2022-10-18T01:53:54.847Z,102462.75
2022-10-18T01:57:01.465Z,102460.06
2022-10-18T02:00:06.675Z,102457.41
2022-10-18T02:03:13.036Z,102469.75
2022-10-18T02:05:48.676Z,102461.84
2022-10-18T02:08:47.327Z,102465.34
2022-10-18T02:11:17.411Z,102464.53
2022-10-18T02:13:53.031Z,102461.88
2022-10-18T02:16:28.240Z,102464.53
2022-10-18T02:19:05.292Z,102459.22
2022-10-18T02:21:33.428Z,102466.31
2022-10-18T02:24:04.119Z,102468.06
2022-10-18T02:26:31.395Z,102468.94
2022-10-18T02:28:58.665Z,102457.47
2022-10-18T02:31:33.032Z,102467.19
2022-10-18T02:34:18.219Z,102463.78
2022-10-18T02:36:59.976Z,102466.50
2022-10-18T02:39:43.230Z,102464.72
2022-10-18T02:42:12.009Z,102462.13
2022-10-18T02:44:39.804Z,102468.31
2022-10-18T02:47:09.357Z,102470.13
2022-10-18T02:49:36.391Z,102474.50
2022-10-18T02:52:03.670Z,102460.34
2022-10-18T02:54:31.745Z,102465.63
2022-10-18T02:56:58.767Z,102471.75
2022-10-18T02:59:25.873Z,102475.34
2022-10-18T03:01:54.041Z,102480.63
2022-10-18T03:04:21.168Z,102470.94
2022-10-18T03:06:48.316Z,102470.09
2022-10-18T03:09:15.336Z,102470.97
2022-10-18T03:11:42.414Z,102475.44
2022-10-18T03:14:09.448Z,102481.63
2022-10-18T03:16:36.569Z,102476.31
2022-10-18T03:19:03.708Z,102469.28
2022-10-18T03:21:30.813Z,102467.47
2022-10-18T03:23:59.694Z,102472.78
2022-10-18T03:26:26.760Z,102474.59
2022-10-18T03:28:53.855Z,102470.19
2022-10-18T03:31:21.971Z,102467.53
2022-10-18T03:33:48.974Z,102476.44
2022-10-18T03:36:15.998Z,102469.38
2022-10-18T03:38:43.380Z,102475.53
2022-10-18T03:41:10.511Z,102480.88
2022-10-18T03:43:37.683Z,102481.78
2022-10-18T03:46:05.056Z,102479.97
2022-10-18T03:48:32.371Z,102478.22
2022-10-18T03:50:59.558Z,102479.06
2022-10-18T03:53:26.607Z,102489.69
2022-10-18T03:55:55.459Z,102481.72
2022-10-18T03:58:24.234Z,102486.19
2022-10-18T04:00:55.400Z,102488.81
2022-10-18T04:03:23.390Z,102489.69
2022-10-18T04:05:51.125Z,102476.47
2022-10-18T04:08:18.873Z,102473.84
2022-10-18T04:10:46.514Z,102473.88
2022-10-18T04:13:13.619Z,102473.88
2022-10-18T04:15:41.819Z,102477.38
2022-10-18T04:18:08.844Z,102487.97
2022-10-18T04:20:35.936Z,102483.53
2022-10-18T04:23:03.057Z,102480.88
2022-10-18T04:25:30.194Z,102479.97
2022-10-18T04:27:57.227Z,102464.97
2022-10-18T04:30:24.176Z,102474.69
2022-10-18T04:32:51.257Z,102478.22
2022-10-18T04:35:19.706Z,102469.38
2022-10-18T04:37:47.726Z,102475.56
2022-10-18T04:40:14.832Z,102470.25
2022-10-18T04:42:41.863Z,102474.63
2022-10-18T04:45:09.672Z,102478.13
2022-10-18T04:47:36.897Z,102479.84
2022-10-18T04:50:05.515Z,102478.91
2022-10-18T04:52:32.623Z,102484.19
2022-10-18T04:54:59.655Z,102487.72
2022-10-18T04:57:26.776Z,102485.00
2022-10-18T04:59:53.723Z,102484.09
2022-10-18T05:02:20.683Z,102483.19
2022-10-18T05:04:47.715Z,102483.19
2022-10-18T05:07:14.868Z,102485.81
2022-10-18T05:09:41.832Z,102477.84
2022-10-18T05:12:09.108Z,102483.16
2022-10-18T05:14:36.157Z,102484.91
2022-10-18T05:17:03.243Z,102480.50
2022-10-18T05:19:30.255Z,102476.06
2022-10-18T05:21:57.274Z,102476.91
2022-10-18T05:24:27.021Z,102485.75
2022-10-18T05:26:55.027Z,102488.47
2022-10-18T05:29:22.332Z,102494.63
2022-10-18T05:31:50.504Z,102491.16
2022-10-18T05:34:18.459Z,102488.56
2022-10-18T05:36:45.663Z,102485.09
2022-10-18T05:39:12.784Z,102488.66
2022-10-18T05:41:39.814Z,102492.25
2022-10-18T05:44:07.290Z,102484.34
2022-10-18T05:46:34.402Z,102491.44
2022-10-18T05:49:01.505Z,102498.53
2022-10-18T05:51:28.477Z,102498.53
2022-10-18T05:53:55.487Z,102506.53
2022-10-18T05:56:22.630Z,102512.78
2022-10-18T05:58:51.657Z,102518.09
2022-10-18T06:01:20.091Z,102515.47
2022-10-18T06:03:47.575Z,102524.38
2022-10-18T06:06:16.976Z,102518.25
2022-10-18T06:08:44.672Z,102527.09
2022-10-18T06:11:16.460Z,102535.06
2022-10-18T06:13:46.752Z,102527.13
2022-10-18T06:16:18.547Z,102539.47
2022-10-18T06:18:52.231Z,102538.53
2022-10-18T06:21:20.892Z,102537.63
2022-10-18T06:23:55.705Z,102538.50
2022-10-18T06:26:23.130Z,102545.59
2022-10-18T06:28:50.508Z,102538.50
2022-10-18T06:31:18.424Z,102536.69
2022-10-18T06:33:48.231Z,102530.44
2022-10-18T06:36:22.270Z,102534.00
2022-10-18T06:38:50.572Z,102542.81
2022-10-18T06:41:19.565Z,102547.19
2022-10-18T06:43:51.892Z,102542.75
2022-10-18T06:46:19.915Z,102546.31
2022-10-18T06:48:48.047Z,102565.78
2022-10-18T06:51:15.394Z,102569.34
2022-10-18T06:53:44.575Z,102572.88
2022-10-18T06:56:26.093Z,102579.03
2022-10-18T06:58:54.200Z,102577.25
2022-10-18T07:01:21.990Z,102580.75
2022-10-18T07:03:53.395Z,102590.50
2022-10-18T07:06:22.348Z,102591.38
2022-10-18T07:08:52.780Z,102598.41
2022-10-18T07:11:25.240Z,102604.63
2022-10-18T07:13:54.755Z,102608.22
2022-10-18T07:16:22.121Z,102610.91
2022-10-18T07:18:51.429Z,102610.03
2022-10-18T07:21:23.103Z,102605.59
2022-10-18T07:23:51.667Z,102605.50
2022-10-18T07:26:25.209Z,102614.22
2022-10-18T07:29:01.541Z,102620.34
2022-10-18T07:31:30.104Z,102619.38
2022-10-18T07:33:57.426Z,102621.06
2022-10-18T07:36:25.602Z,102633.38
2022-10-18T07:38:53.679Z,102642.25
2022-10-18T07:41:21.680Z,102644.13
2022-10-18T07:43:51.706Z,102648.56
2022-10-18T07:46:21.558Z,102645.00
2022-10-18T07:48:50.677Z,102656.44
2022-10-18T07:51:20.627Z,102657.19
2022-10-18T07:53:48.461Z,102657.94
2022-10-18T07:56:21.162Z,102649.09
2022-10-18T07:58:51.864Z,102665.88
2022-10-18T08:01:21.406Z,102671.16
2022-10-18T08:03:49.364Z,102670.34
2022-10-18T08:06:19.127Z,102671.31
2022-10-18T08:08:47.113Z,102672.25
2022-10-18T08:11:21.381Z,102682.91
2022-10-18T08:13:48.919Z,102688.28
2022-10-18T08:16:20.473Z,102689.25
2022-10-18T08:18:48.890Z,102692.81
2022-10-18T08:21:17.751Z,102691.91
2022-10-18T08:23:45.206Z,102700.81
2022-10-18T08:26:20.062Z,102693.63
2022-10-18T08:28:53.892Z,102689.88
2022-10-18T08:31:27.592Z,102695.81
2022-10-18T08:33:58.036Z,102700.94
2022-10-18T08:36:26.064Z,102705.91
2022-10-18T08:38:53.097Z,102701.06
2022-10-18T08:42:30.174Z,102706.75
2022-10-18T08:44:58.023Z,102711.69
2022-10-18T08:47:41.948Z,102704.38
2022-10-18T08:50:23.789Z,102706.91
2022-10-18T08:52:53.633Z,102713.09
2022-10-18T08:55:39.615Z,102708.00
2022-10-18T08:58:33.613Z,102705.56
2022-10-18T09:01:56.670Z,102714.53
2022-10-18T09:05:04.357Z,102708.22
2022-10-18T09:07:59.316Z,102702.75
2022-10-18T09:14:03.434Z,102714.16
2022-10-18T09:16:51.476Z,102709.53
2022-10-18T09:19:45.114Z,102707.53
2022-10-18T09:22:20.289Z,102725.03
2022-10-18T09:25:14.319Z,102730.13
2022-10-18T09:28:07.687Z,102714.84
2022-10-18T09:31:17.446Z,102714.63
2022-10-18T09:33:58.876Z,102718.97
2022-10-18T09:36:35.556Z,102717.13
2022-10-18T09:39:15.456Z,102721.47
2022-10-18T09:41:59.146Z,102724.88
2022-10-18T09:44:38.172Z,102717.69
2022-10-18T09:47:33.735Z,102712.16
2022-10-18T09:50:24.267Z,102721.84
2022-10-18T09:53:12.869Z,102719.13
2022-10-18T09:56:18.867Z,102704.78
2022-10-18T09:58:49.712Z,102719.59
2022-10-18T10:01:23.991Z,102717.59
2022-10-18T10:03:52.428Z,102721.94
2022-10-18T10:06:27.349Z,102724.44
2022-10-18T10:09:18.272Z,102730.53
2022-10-18T10:11:49.151Z,102732.03
2022-10-18T10:14:26.210Z,102719.53
2022-10-18T10:16:58.307Z,102729.06
2022-10-18T10:19:32.149Z,102718.38
2022-10-18T10:22:10.462Z,102724.41
2022-10-18T10:24:51.188Z,102714.38
2022-10-18T10:27:35.934Z,102716.91
2022-10-18T10:30:22.539Z,102721.16
2022-10-18T10:32:52.004Z,102733.31
2022-10-18T10:38:29.535Z,102738.44
2022-10-18T10:40:58.702Z,102733.81
2022-10-18T10:43:40.027Z,102739.72
2022-10-18T10:46:26.341Z,102737.03
2022-10-18T10:49:21.679Z,102736.00
2022-10-18T10:52:02.527Z,102740.38
2022-10-18T10:54:39.841Z,102740.94
2022-10-18T10:57:22.058Z,102742.44
2022-10-18T10:59:53.758Z,102753.72
2022-10-18T11:02:36.380Z,102758.69
2022-10-18T11:05:29.462Z,102751.25
2022-10-18T11:08:04.439Z,102758.13
2022-10-18T11:10:50.074Z,102752.63
2022-10-18T11:13:53.298Z,102745.47
2022-10-18T11:16:56.220Z,102746.38
2022-10-18T11:19:40.196Z,102746.97
2022-10-18T11:22:18.479Z,102752.16
2022-10-18T11:24:45.623Z,102756.38
2022-10-18T11:27:29.314Z,102742.81
2022-10-18T11:30:44.223Z,102741.59
2022-10-18T11:34:03.707Z,102737.81
2022-10-18T11:36:57.992Z,102745.69
2022-10-18T11:39:50.071Z,102743.69
2022-10-18T11:42:41.851Z,102746.22
2022-10-18T11:46:00.277Z,102744.13
2022-10-18T11:48:55.032Z,102747.47
2022-10-18T11:52:03.131Z,102741.09
2022-10-18T11:54:51.991Z,102739.22
2022-10-18T11:57:55.239Z,102736.56
2022-10-18T12:00:53.381Z,102727.53
2022-10-18T12:03:35.352Z,102723.88
2022-10-18T12:06:13.656Z,102722.94
2022-10-18T12:08:52.903Z,102721.03
2022-10-18T12:11:30.700Z,102718.31
2022-10-18T12:14:07.933Z,102724.28
2022-10-18T12:17:20.238Z,102729.53
2022-10-18T12:19:33.056Z,102730.41
2022-10-18T12:22:20.319Z,102729.53
2022-10-18T12:24:47.419Z,102727.66
2022-10-18T12:27:18.678Z,102716.84
2022-10-18T12:30:03.738Z,102713.03
2022-10-18T12:32:36.705Z,102713.88
2022-10-18T12:35:13.476Z,102718.34
2022-10-18T12:38:15.927Z,102721.88
2022-10-18T12:40:48.404Z,102712.19
2022-10-18T12:43:26.592Z,102707.75
2022-10-18T12:46:00.410Z,102703.16
2022-10-18T12:48:45.587Z,102711.94
2022-10-18T12:51:21.831Z,102702.31
2022-10-18T12:54:00.741Z,102708.66
2022-10-18T12:56:27.710Z,102709.63
2022-10-18T12:59:16.340Z,102702.66
2022-10-18T13:01:53.457Z,102706.34
2022-10-18T13:04:32.544Z,102703.69
2022-10-18T13:07:08.347Z,102701.94
2022-10-18T13:09:39.967Z,102697.53
2022-10-18T13:12:09.651Z,102693.06
2022-10-18T13:15:05.996Z,102692.19
2022-10-18T13:17:54.885Z,102698.63
2022-10-18T13:20:54.450Z,102695.19
2022-10-18T13:23:49.776Z,102693.28
2022-10-18T13:26:40.296Z,102697.72
2022-10-18T13:29:47.424Z,102695.03
2022-10-18T13:32:35.499Z,102691.56
2022-10-18T13:35:03.559Z,102688.94
2022-10-18T13:37:31.057Z,102695.97
2022-10-18T13:40:25.444Z,102687.91
2022-10-18T13:42:52.509Z,102693.28
2022-10-18T13:45:52.772Z,102696.84
2022-10-18T13:48:31.859Z,102693.59
2022-10-18T13:51:27.036Z,102695.53
2022-10-18T13:54:23.229Z,102694.53
2022-10-18T13:57:34.152Z,102693.44
2022-10-18T14:00:36.508Z,102689.59
2022-10-18T14:03:55.480Z,102687.00
2022-10-18T14:06:25.135Z,102696.28
2022-10-18T14:09:32.858Z,102691.03
2022-10-18T14:12:44.825Z,102698.34
2022-10-18T14:15:51.422Z,102698.66
2022-10-18T14:18:36.361Z,102699.75
2022-10-18T14:21:17.838Z,102709.44
2022-10-18T14:23:51.312Z,102700.50
2022-10-18T14:26:21.501Z,102715.69
2022-10-18T14:29:07.717Z,102709.34
2022-10-18T14:31:35.596Z,102695.97
2022-10-18T14:34:04.290Z,102697.59
2022-10-18T14:36:46.941Z,102699.31
2022-10-18T14:39:27.053Z,102693.13
2022-10-18T14:41:59.496Z,102696.81
2022-10-18T14:44:34.879Z,102700.50
2022-10-18T14:47:21.111Z,102699.84
2022-10-18T14:49:50.389Z,102694.59
2022-10-18T14:52:29.411Z,102698.94
2022-10-18T14:55:00.800Z,102695.44
2022-10-18T14:57:37.560Z,102697.13
2022-10-18T15:00:17.127Z,102705.97
2022-10-18T15:02:45.249Z,102700.75
2022-10-18T15:05:25.601Z,102702.59
2022-10-18T15:07:55.197Z,102698.38
2022-10-18T15:10:32.645Z,102706.53
2022-10-18T15:13:12.820Z,102704.09
2022-10-18T15:15:43.633Z,102696.41
2022-10-18T15:18:24.152Z,102698.44
2022-10-18T15:21:23.847Z,102699.69
2022-10-18T15:23:52.971Z,102699.06
2022-10-18T15:26:30.322Z,102693.06
2022-10-18T15:29:02.849Z,102704.91
2022-10-18T15:31:44.555Z,102708.72
2022-10-18T15:34:19.810Z,102703.69
2022-10-18T15:36:49.853Z,102711.16
2022-10-18T15:39:24.419Z,102708.81
2022-10-18T15:41:57.290Z,102711.84
2022-10-18T15:44:48.142Z,102710.34
2022-10-18T15:47:23.891Z,102708.06
2022-10-18T15:49:55.550Z,102705.75
2022-10-18T15:52:38.226Z,102706.09
2022-10-18T15:55:31.224Z,102702.88
2022-10-18T15:58:25.344Z,102706.75
2022-10-18T16:00:59.372Z,102709.84
2022-10-18T16:03:28.796Z,102713.72
2022-10-18T16:06:06.116Z,102708.69
2022-10-18T16:08:41.249Z,102704.59
2022-10-18T16:11:16.662Z,102714.59
2022-10-18T16:13:45.509Z,102712.22
2022-10-18T16:16:26.068Z,102714.34
2022-10-18T16:18:54.612Z,102718.25
2022-10-18T16:21:31.922Z,102712.31
2022-10-18T16:24:00.187Z,102717.09
2022-10-18T16:26:29.828Z,102720.91
2022-10-18T16:28:59.816Z,102716.75
2022-10-18T16:31:33.545Z,102715.28
2022-10-18T16:34:03.094Z,102724.47
2022-10-18T16:36:33.700Z,102725.69
2022-10-18T16:39:12.153Z,102729.53
2022-10-18T16:41:39.215Z,102735.19
2022-10-18T16:44:06.199Z,102735.44
2022-10-18T16:46:35.232Z,102736.53
2022-10-18T16:51:47.303Z,102747.63
2022-10-18T16:54:14.426Z,102749.59
2022-10-18T16:56:41.479Z,102747.09
2022-10-18T16:59:21.886Z,102750.78
2022-10-18T17:01:48.962Z,102758.09
2022-10-18T17:04:16.556Z,102759.13
2022-10-18T17:06:43.970Z,102762.78
2022-10-18T17:09:15.045Z,102756.75
2022-10-18T17:11:45.493Z,102752.38
2022-10-18T17:14:12.556Z,102753.41
2022-10-18T17:16:39.702Z,102759.66
2022-10-18T17:19:11.719Z,102765.06
2022-10-18T17:21:38.719Z,102766.03
2022-10-18T17:24:06.246Z,102766.97
2022-10-18T17:26:34.739Z,102770.59
2022-10-18T17:29:07.171Z,102766.22
2022-10-18T17:31:35.874Z,102767.19
2022-10-18T17:34:04.643Z,102765.50
2022-10-18T17:36:33.635Z,102780.53
2022-10-18T17:39:01.584Z,102779.69
2022-10-18T17:41:30.630Z,102791.19
2022-10-18T17:43:58.260Z,102790.38
2022-10-18T17:46:25.417Z,102799.28
2022-10-18T17:48:53.679Z,102804.59
2022-10-18T17:51:20.988Z,102808.97
2022-10-18T17:53:48.497Z,102812.53
2022-10-18T17:56:16.948Z,102815.19
2022-10-18T17:58:43.899Z,102809.91
2022-10-18T18:01:21.283Z,102817.00
2022-10-18T18:03:48.654Z,102821.38
2022-10-18T18:06:39.014Z,102824.97
2022-10-18T18:09:13.548Z,102826.72
2022-10-18T18:11:43.833Z,102825.84
2022-10-18T18:14:12.041Z,102815.31
2022-10-18T18:16:43.016Z,102825.88
2022-10-18T18:19:11.359Z,102826.75
2022-10-18T18:21:40.294Z,102832.94
2022-10-18T18:24:10.053Z,102827.66
2022-10-18T18:26:38.936Z,102829.44
2022-10-18T18:29:06.473Z,102827.69
2022-10-18T18:31:38.873Z,102836.47
2022-10-18T18:34:10.319Z,102840.91
2022-10-18T18:36:37.723Z,102833.00
2022-10-18T18:39:05.691Z,102827.72
2022-10-18T18:41:33.280Z,102831.25
2022-10-18T18:44:04.352Z,102834.75
2022-10-18T18:46:38.313Z,102839.13
2022-10-18T18:49:08.112Z,102830.34
2022-10-18T18:51:40.129Z,102839.13
2022-10-18T18:54:10.364Z,102831.22
2022-10-18T18:56:38.060Z,102837.34
2022-10-18T18:59:05.874Z,102835.63
2022-10-18T19:01:37.041Z,102833.84
2022-10-18T19:04:07.558Z,102838.22
2022-10-18T19:06:38.715Z,102832.06
2022-10-18T19:09:18.960Z,102827.66
2022-10-18T19:11:48.594Z,102829.41
2022-10-18T19:14:15.783Z,102829.38
2022-10-18T19:16:55.088Z,102826.69
2022-10-18T19:19:25.230Z,102828.47
2022-10-18T19:22:00.215Z,102829.31
2022-10-18T19:24:32.452Z,102831.91
2022-10-18T19:27:12.519Z,102835.41
2022-10-18T19:29:40.961Z,102838.88
2022-10-18T19:32:15.093Z,102830.97
2022-10-18T19:34:46.156Z,102835.34
2022-10-18T19:37:16.115Z,102834.47
2022-10-18T19:39:43.301Z,102841.47
2022-10-18T19:42:16.002Z,102848.44
2022-10-18T19:44:47.943Z,102842.31
2022-10-18T19:47:14.972Z,102847.56
2022-10-18T19:49:43.041Z,102839.63
2022-10-18T19:52:12.251Z,102844.00
2022-10-18T19:54:39.618Z,102843.97
2022-10-18T19:57:07.819Z,102846.63
2022-10-18T19:59:36.030Z,102846.59
2022-10-18T20:02:06.955Z,102846.59
2022-10-18T20:04:35.068Z,102847.44
2022-10-18T20:07:02.768Z,102848.28
2022-10-18T20:09:30.053Z,102848.25
2022-10-18T20:11:57.081Z,102850.00
2022-10-18T20:14:24.117Z,102845.56
2022-10-18T20:16:51.175Z,102852.56
2022-10-18T20:19:18.242Z,102851.66
2022-10-18T20:21:45.245Z,102851.66
2022-10-18T20:24:12.364Z,102856.03
2022-10-18T20:26:39.770Z,102850.75
2022-10-18T20:29:07.848Z,102850.75
2022-10-18T20:31:38.392Z,102848.06
2022-10-18T20:34:11.078Z,102849.81
2022-10-18T20:36:38.378Z,102851.56
2022-10-18T20:39:07.733Z,102859.44
2022-10-18T20:41:41.135Z,102853.25
2022-10-18T20:44:14.537Z,102851.50
2022-10-18T20:46:42.370Z,102857.63
2022-10-18T20:49:14.743Z,102852.34
2022-10-18T20:51:42.199Z,102854.06
2022-10-18T20:54:10.454Z,102845.28
2022-10-18T20:56:39.171Z,102844.41
2022-10-18T20:59:14.741Z,102839.97
2022-10-18T21:01:43.062Z,102844.28
2022-10-18T21:04:11.294Z,102841.66
2022-10-18T21:06:43.159Z,102844.41
2022-10-18T21:09:16.345Z,102840.09
2022-10-18T21:11:49.811Z,102835.78
2022-10-18T21:14:21.232Z,102836.69
2022-10-18T21:16:50.880Z,102828.75
2022-10-18T21:19:25.329Z,102826.13
2022-10-18T21:21:55.343Z,102824.34
2022-10-18T21:24:25.989Z,102823.50
2022-10-18T21:26:53.663Z,102831.44
2022-10-18T21:29:24.735Z,102832.34
2022-10-18T21:31:55.671Z,102823.56
2022-10-18T21:34:22.803Z,102831.38
2022-10-18T21:36:49.813Z,102819.94
2022-10-18T21:39:21.343Z,102818.09
2022-10-18T21:41:49.462Z,102821.50
2022-10-18T21:44:18.210Z,102818.81
2022-10-18T21:46:46.736Z,102813.50
2022-10-18T21:49:15.584Z,102814.28
2022-10-18T21:51:44.107Z,102818.69
2022-10-18T21:54:14.506Z,102819.50
2022-10-18T21:56:41.846Z,102823.84
2022-10-18T21:59:14.035Z,102819.38
2022-10-18T22:01:43.538Z,102813.25
2022-10-18T22:04:23.845Z,102825.63
2022-10-18T22:06:52.164Z,102820.31
2022-10-18T22:09:21.058Z,102821.19
2022-10-18T22:11:52.657Z,102817.59
2022-10-18T22:14:20.853Z,102812.25
2022-10-18T22:16:47.920Z,102822.72
2022-10-18T22:19:15.100Z,102816.47
2022-10-18T22:21:42.250Z,102819.03
2022-10-18T22:24:10.423Z,102814.59
2022-10-18T22:26:41.599Z,102814.53
2022-10-18T22:29:15.166Z,102816.25
2022-10-18T22:31:47.374Z,102819.72
2022-10-18T22:34:22.285Z,102813.56
2022-10-18T22:36:50.176Z,102823.16
2022-10-18T22:39:17.954Z,102818.72
2022-10-18T22:41:46.588Z,102819.56
2022-10-18T22:44:14.759Z,102815.13
2022-10-18T22:46:43.069Z,102821.22
2022-10-18T22:49:11.638Z,102819.41
2022-10-18T22:51:40.630Z,102824.66
2022-10-18T22:54:07.941Z,102816.72
2022-10-18T22:56:35.228Z,102825.44
2022-10-18T22:59:02.224Z,102828.94
2022-10-18T23:01:30.311Z,102823.63
2022-10-18T23:04:00.002Z,102831.50
2022-10-18T23:06:31.916Z,102826.22
2022-10-18T23:09:02.179Z,102818.25
2022-10-18T23:11:29.556Z,102827.03
2022-10-18T23:13:57.114Z,102831.38
2022-10-18T23:16:26.264Z,102821.72
2022-10-18T23:18:56.815Z,102826.06
2022-10-18T23:21:28.002Z,102821.66
2022-10-18T23:23:56.748Z,102826.84
2022-10-18T23:26:28.106Z,102819.81
2022-10-18T23:28:56.271Z,102825.84
2022-10-18T23:31:31.083Z,102819.72
2022-10-18T23:34:04.943Z,102822.31
2022-10-18T23:36:33.602Z,102817.06
2022-10-18T23:39:00.984Z,102818.91
2022-10-18T23:41:28.289Z,102827.84
2022-10-18T23:43:55.424Z,102823.59
2022-10-18T23:46:22.550Z,102829.72
2022-10-18T23:48:50.297Z,102829.59
2022-10-18T23:51:18.431Z,102838.25
2022-10-18T23:53:45.674Z,102831.19
2022-10-18T23:56:16.129Z,102830.25
2022-10-18T23:58:45.135Z,102824.16
